Terminal Aerodrome Forecast
Issued by NWS

Home | Current Version | Previous Version | Text Only | Print | Product List | Glossary Off
Versions: 1 2 3 4 5 6 7 8 9 10 11 12 13 14 15 16

830
FTUS43 KMPX 261120
TAFAXN
TAF
KAXN 261120Z 2612/2712 02015G22KT 6SM -FZDZSN BR BKN008 OVC015
     FM261400 36014G24KT 4SM -SN BR BKN008 OVC015
     FM262100 35014KT P6SM -SN SCT008 OVC015
     FM270600 34010KT P6SM OVC015=

USA.gov is the U.S. government's official web portal to all federal, state and local government web resources and services.